Pelizeno — 2JAL2 — position and weather

sailwx.info

Track history (hours):
 
Tides and Currents Weather Stations Pressure Air Temp Water Temp Dewpoint Dewpoint Depression Visibility Wind Speed Wind Dir Waves Ship Positions

Pelizeno

Last reported at 2017-Sep-21 19:59 UTC. Time now 2017-Oct-19 18:33 UTC.
Position N 37°32' W 000°48'.
Warning: this ship's position is 27 days out of date.

Length 15 m.

Type: Sailing vessel. MMSI: 235114281.

Date/timePositionNaut miles runAvg speedWind from/ knotsBaromVisibWave heightAir tempDewpointWater temp
2017-Sep-21 19:59N 37°32' W 000°48'5 7.7
2017-Sep-21 19:24N 37°34' W 000°43'3 7.1
2017-Sep-21 18:58N 37°37' W 000°41'4 8.1
2017-Sep-21 18:30N 37°40' W 000°40'4 8.3
2017-Sep-21 18:00N 37°44' W 000°39'4 8.1
2017-Sep-21 17:29N 37°48' W 000°38'4 8.0
2017-Sep-21 16:59N 37°52' W 000°37'4 8.1
2017-Sep-21 16:30N 37°56' W 000°36'  
2017-Sep-15 09:25N 39°32' E 002°38'2 3.7
2017-Sep-15 08:59N 39°34' E 002°38'0 0.5
2017-Sep-15 08:27N 39°34' E 002°38'0 0.0
2017-Sep-14 13:09N 39°34' E 002°38'0 0.0
2017-Sep-14 13:00N 39°34' E 002°38'0 0.0
2017-Sep-14 12:30N 39°34' E 002°38'0 0.0
2017-Sep-14 12:00N 39°34' E 002°38'0 0.0
2017-Sep-14 11:29N 39°34' E 002°38'0 0.0
2017-Sep-14 10:51N 39°34' E 002°38'0 0.0
2017-Sep-14 10:21N 39°34' E 002°38'0 0.0
2017-Sep-14 10:00N 39°34' E 002°38'0 0.0
2017-Sep-14 09:30N 39°34' E 002°38'0 0.0
2017-Sep-13 13:37N 39°34' E 002°38'0 0.0
2017-Sep-13 13:24N 39°34' E 002°38'  
Track history (hours):
 
Tides and Currents Weather Stations Pressure Air Temp Water Temp Dewpoint Dewpoint Depression Visibility Wind Speed Wind Dir Waves Ship Positions

Pelizeno

Last reported at 2017-Sep-21 19:59 UTC. Time now 2017-Oct-19 18:33 UTC.
Position N 37°32' W 000°48'.
Warning: this ship's position is 27 days out of date.

Length 15 m.

Type: Sailing vessel. MMSI: 235114281.

Date/timePositionNaut miles runAvg speedWind from/ knotsBaromVisibWave heightAir tempDewpointWater temp
2017-Sep-21 19:59N 37°32' W 000°48'5 7.7
2017-Sep-21 19:24N 37°34' W 000°43'3 7.1
2017-Sep-21 18:58N 37°37' W 000°41'4 8.1
2017-Sep-21 18:30N 37°40' W 000°40'4 8.3
2017-Sep-21 18:00N 37°44' W 000°39'4 8.1
2017-Sep-21 17:29N 37°48' W 000°38'4 8.0
2017-Sep-21 16:59N 37°52' W 000°37'4 8.1
2017-Sep-21 16:30N 37°56' W 000°36'  
2017-Sep-15 09:25N 39°32' E 002°38'2 3.7
2017-Sep-15 08:59N 39°34' E 002°38'0 0.5
2017-Sep-15 08:27N 39°34' E 002°38'0 0.0
2017-Sep-14 13:09N 39°34' E 002°38'0 0.0
2017-Sep-14 13:00N 39°34' E 002°38'0 0.0
2017-Sep-14 12:30N 39°34' E 002°38'0 0.0
2017-Sep-14 12:00N 39°34' E 002°38'0 0.0
2017-Sep-14 11:29N 39°34' E 002°38'0 0.0
2017-Sep-14 10:51N 39°34' E 002°38'0 0.0
2017-Sep-14 10:21N 39°34' E 002°38'0 0.0
2017-Sep-14 10:00N 39°34' E 002°38'0 0.0
2017-Sep-14 09:30N 39°34' E 002°38'0 0.0
2017-Sep-13 13:37N 39°34' E 002°38'0 0.0
2017-Sep-13 13:24N 39°34' E 002°38'  

Dump ship's entire track history